Aviation Digital Data Service (ADDS)

Output produced by METARs form (1554 UTC 15 December 2017)
found at http://aviationweather.gov/adds/metars/
 
KBTV 151130Z 1512/1612 VRB04KT P6SM SKC 
     FM152000 17006KT P6SM BKN100 
     FM160300 18005KT P6SM VCSH OVC060